»·PEaware :: SKY65 KSBP-KOAR

SKY65 :: KSBP-KOAR

FLIGHT INFORMATION

Flight Status: Arrived
Operator:
Sky High Charters
More flights by this operator :: More flights under this callsign
Pilot: Anonymous 27411 (27411)
Aircraft: BEECH AIRCRAFT BARON
(BE58)
More flights by this aircraft type
Origin: KSBP San Luis Co Regl
United States
Destination: KOAR Marina
United States
More flights between these airports :: More routes between these airports
Route: CREPE3 PRB V248 SARDO HAGRO
File this flight plan on PilotEdge
Remarks: thank you!
Altitude:
(Current/Filed)
8,000ft
Speed:
(Current/Filed)
175kts
Departed: 14-Jan-22 11:20 AM
Arrived: 14-Jan-22 12:04 PM
Distance/Time
Traveled:
102nm/0:44
Distance/Time
To Go:
Arrived

Flight Plot

Page will automatically refresh every two minutes.

Flight plan parsing failed; only flown route is shown


Map Options




Map Legend


Flown Route
Filed Route
Departure Airport
Arrival Airport
Navaid (VOR, NDB)
Fix

Horizontal Profiles

Position Reports

Time Latitude Longitude Heading Altitude Ground
Speed
14-Jan-22 10:57 35.235805 -120.635583 302 216ft 0kts
14-Jan-22 10:58 35.235805 -120.635583 302 216ft 0kts
14-Jan-22 10:59 35.235805 -120.635583 302 216ft 0kts
14-Jan-22 11:00 35.235805 -120.635583 302 216ft 0kts
14-Jan-22 11:01 35.235805 -120.635583 302 216ft 0kts
14-Jan-22 11:02 35.235805 -120.635583 302 216ft 0kts
14-Jan-22 11:03 35.235805 -120.635583 302 216ft 0kts
14-Jan-22 11:04 35.235805 -120.635583 302 216ft 0kts
14-Jan-22 11:05 35.235805 -120.635583 302 216ft 0kts
14-Jan-22 11:06 35.235805 -120.635583 302 216ft 0kts
14-Jan-22 11:07 35.235805 -120.635583 302 216ft 0kts
14-Jan-22 11:08 35.235805 -120.635583 302 216ft 0kts
14-Jan-22 11:09 35.235805 -120.635583 302 216ft 0kts
14-Jan-22 11:10 35.235805 -120.635583 302 216ft 0kts
14-Jan-22 11:11 35.235805 -120.635583 302 216ft 0kts
14-Jan-22 11:12 35.235805 -120.635583 302 216ft 0kts
14-Jan-22 11:13 35.236022 -120.635391 131 216ft 0kts
14-Jan-22 11:15 35.234863 -120.634772 123 216ft 17kts
14-Jan-22 11:16 35.233232 -120.632318 187 216ft 0kts
14-Jan-22 11:17 35.233232 -120.632318 187 216ft 0kts
14-Jan-22 11:18 35.233232 -120.632318 187 216ft 0kts
14-Jan-22 11:19 35.232837 -120.632836 255 216ft 10kts
14-Jan-22 11:20 35.246825 -120.656492 303 1005ft 125kts
14-Jan-22 11:21 35.263684 -120.695713 306 2628ft 132kts
14-Jan-22 11:22 35.285273 -120.731914 306 4083ft 133kts
14-Jan-22 11:23 35.306127 -120.769851 297 5332ft 136kts
14-Jan-22 11:24 35.330255 -120.804805 309 6467ft 136kts
14-Jan-22 11:25 35.350460 -120.844791 304 7384ft 142kts
14-Jan-22 11:26 35.384274 -120.845989 33 8036ft 154kts
14-Jan-22 11:27 35.421854 -120.814877 36 8177ft 169kts
14-Jan-22 11:28 35.463631 -120.783353 28 8101ft 178kts
14-Jan-22 11:29 35.506517 -120.752330 29 8138ft 177kts
14-Jan-22 11:30 35.548292 -120.721189 24 8230ft 177kts
14-Jan-22 11:31 35.589185 -120.684594 35 8122ft 182kts
14-Jan-22 11:32 35.632506 -120.654171 24 8060ft 182kts
14-Jan-22 11:33 35.677187 -120.630399 351 8231ft 170kts
14-Jan-22 11:34 35.723372 -120.650869 340 8038ft 178kts
14-Jan-22 11:35 35.771018 -120.665734 342 8042ft 176kts
14-Jan-22 11:36 35.819060 -120.678353 345 7975ft 179kts
14-Jan-22 11:36 35.857840 -120.694271 335 8122ft 169kts
14-Jan-22 11:38 35.909040 -120.721910 341 8080ft 180kts
14-Jan-22 11:38 35.948204 -120.737328 342 7866ft 190kts
14-Jan-22 11:40 36.002910 -120.759353 341 8041ft 169kts
14-Jan-22 11:41 36.047145 -120.777217 341 8185ft 166kts
14-Jan-22 11:42 36.090838 -120.799213 316 7986ft 177kts
14-Jan-22 11:42 36.117031 -120.837362 309 7999ft 173kts
14-Jan-22 11:43 36.146932 -120.883738 310 8003ft 172kts
14-Jan-22 11:45 36.182187 -120.937404 310 8003ft 172kts
14-Jan-22 11:46 36.212525 -120.983526 311 8002ft 172kts
14-Jan-22 11:46 36.237824 -121.022035 311 8001ft 173kts
14-Jan-22 11:47 36.268223 -121.068365 312 7999ft 174kts
14-Jan-22 11:48 36.298919 -121.115211 312 7997ft 176kts
14-Jan-22 11:50 36.335168 -121.170609 313 7979ft 179kts
14-Jan-22 11:50 36.361521 -121.210994 313 7929ft 182kts
14-Jan-22 11:51 36.394283 -121.261038 313 7561ft 193kts
14-Jan-22 11:52 36.428670 -121.313772 312 7100ft 198kts
14-Jan-22 11:53 36.463426 -121.367219 311 6677ft 192kts
14-Jan-22 11:54 36.497134 -121.419134 310 6027ft 193kts
14-Jan-22 11:55 36.530881 -121.472036 307 5263ft 198kts
14-Jan-22 11:56 36.564862 -121.525012 341 3826ft 186kts
14-Jan-22 11:57 36.597352 -121.574467 288 2417ft 215kts
14-Jan-22 11:58 36.619531 -121.636115 300 2183ft 179kts
14-Jan-22 11:59 36.639083 -121.680273 314 1075ft 111kts
14-Jan-22 12:00 36.657314 -121.714954 305 866ft 127kts
14-Jan-22 12:01 36.679214 -121.749966 352 757ft 116kts
14-Jan-22 12:02 36.686371 -121.773017 97 483ft 123kts
14-Jan-22 12:03 36.679200 -121.758395 215 130ft 0kts
14-Jan-22 12:04 36.678910 -121.758644 213 132ft 12kts
14-Jan-22 12:05 36.679265 -121.762101 215 136ft 10kts
14-Jan-22 12:06 36.679498 -121.763673 307 139ft 0kts
14-Jan-22 12:07 36.679498 -121.763673 307 139ft 0kts
14-Jan-22 12:08 36.679498 -121.763673 307 139ft 0kts
14-Jan-22 12:09 36.679498 -121.763673 307 139ft 0kts
14-Jan-22 12:10 36.679498 -121.763673 307 139ft 0kts

Navigation Log

Ident Type
Flight plan parsing failed, navigation log unavailable